sensor_id;sensor_type;location;lat;lon;timestamp;P1;durP1;ratioP1;P2;durP2;ratioP2
2522;SDS011;1272;53.332;9.860;2023-03-03T00:02:27;47.57;;;24.80;;
2522;SDS011;1272;53.332;9.860;2023-03-03T00:04:52;54.93;;;28.97;;
2522;SDS011;1272;53.332;9.860;2023-03-03T00:07:19;54.07;;;27.27;;
2522;SDS011;1272;53.332;9.860;2023-03-03T00:09:47;53.13;;;28.00;;
2522;SDS011;1272;53.332;9.860;2023-03-03T00:12:20;51.50;;;26.33;;
2522;SDS011;1272;53.332;9.860;2023-03-03T00:14:48;61.77;;;30.30;;
2522;SDS011;1272;53.332;9.860;2023-03-03T00:17:17;61.17;;;31.40;;
2522;SDS011;1272;53.332;9.860;2023-03-03T00:19:49;52.90;;;27.87;;
2522;SDS011;1272;53.332;9.860;2023-03-03T00:22:28;51.50;;;28.20;;
2522;SDS011;1272;53.332;9.860;2023-03-03T00:24:59;50.00;;;24.83;;
2522;SDS011;1272;53.332;9.860;2023-03-03T00:27:44;56.90;;;25.80;;
2522;SDS011;1272;53.332;9.860;2023-03-03T00:30:19;60.90;;;27.23;;
2522;SDS011;1272;53.332;9.860;2023-03-03T00:32:52;48.70;;;24.37;;
2522;SDS011;1272;53.332;9.860;2023-03-03T00:35:25;53.07;;;26.30;;
2522;SDS011;1272;53.332;9.860;2023-03-03T00:38:01;55.43;;;26.20;;
2522;SDS011;1272;53.332;9.860;2023-03-03T00:40:36;49.47;;;25.53;;
2522;SDS011;1272;53.332;9.860;2023-03-03T00:45:51;54.47;;;25.33;;
2522;SDS011;1272;53.332;9.860;2023-03-03T00:48:26;55.50;;;25.23;;
2522;SDS011;1272;53.332;9.860;2023-03-03T00:51:25;47.90;;;24.27;;
2522;SDS011;1272;53.332;9.860;2023-03-03T00:53:52;53.20;;;23.93;;
2522;SDS011;1272;53.332;9.860;2023-03-03T00:56:18;55.00;;;26.00;;
2522;SDS011;1272;53.332;9.860;2023-03-03T00:58:44;50.67;;;23.73;;
2522;SDS011;1272;53.332;9.860;2023-03-03T01:01:12;46.43;;;24.10;;
2522;SDS011;1272;53.332;9.860;2023-03-03T01:03:38;47.87;;;23.90;;
2522;SDS011;1272;53.332;9.860;2023-03-03T01:06:04;46.50;;;23.70;;
2522;SDS011;1272;53.332;9.860;2023-03-03T01:08:30;51.80;;;26.17;;
2522;SDS011;1272;53.332;9.860;2023-03-03T01:10:56;41.63;;;21.77;;
2522;SDS011;1272;53.332;9.860;2023-03-03T01:13:28;46.37;;;23.93;;
2522;SDS011;1272;53.332;9.860;2023-03-03T01:15:56;47.10;;;23.73;;
2522;SDS011;1272;53.332;9.860;2023-03-03T01:18:23;51.07;;;26.47;;
2522;SDS011;1272;53.332;9.860;2023-03-03T01:20:49;53.27;;;25.43;;
2522;SDS011;1272;53.332;9.860;2023-03-03T01:23:15;48.17;;;24.23;;
2522;SDS011;1272;53.332;9.860;2023-03-03T01:25:41;47.93;;;24.53;;
2522;SDS011;1272;53.332;9.860;2023-03-03T01:28:06;44.30;;;22.00;;
2522;SDS011;1272;53.332;9.860;2023-03-03T01:30:32;46.90;;;22.77;;
2522;SDS011;1272;53.332;9.860;2023-03-03T01:32:58;43.63;;;21.97;;
2522;SDS011;1272;53.332;9.860;2023-03-03T01:35:24;43.90;;;23.00;;
2522;SDS011;1272;53.332;9.860;2023-03-03T01:37:50;44.90;;;20.20;;
2522;SDS011;1272;53.332;9.860;2023-03-03T01:40:20;38.07;;;19.70;;
2522;SDS011;1272;53.332;9.860;2023-03-03T01:42:48;37.07;;;20.73;;
2522;SDS011;1272;53.332;9.860;2023-03-03T01:48:09;36.67;;;19.80;;
2522;SDS011;1272;53.332;9.860;2023-03-03T01:50:40;46.23;;;22.17;;
2522;SDS011;1272;53.332;9.860;2023-03-03T01:53:14;39.20;;;22.53;;
2522;SDS011;1272;53.332;9.860;2023-03-03T01:55:45;36.20;;;19.67;;
2522;SDS011;1272;53.332;9.860;2023-03-03T01:58:20;44.00;;;24.10;;
2522;SDS011;1272;53.332;9.860;2023-03-03T02:00:54;52.87;;;23.17;;
2522;SDS011;1272;53.332;9.860;2023-03-03T02:03:24;37.30;;;20.47;;
2522;SDS011;1272;53.332;9.860;2023-03-03T02:05:51;44.27;;;22.60;;
2522;SDS011;1272;53.332;9.860;2023-03-03T02:08:23;35.60;;;19.50;;
2522;SDS011;1272;53.332;9.860;2023-03-03T02:10:54;39.30;;;21.20;;
2522;SDS011;1272;53.332;9.860;2023-03-03T02:13:22;38.10;;;19.87;;
2522;SDS011;1272;53.332;9.860;2023-03-03T02:15:47;37.37;;;20.30;;
2522;SDS011;1272;53.332;9.860;2023-03-03T02:18:14;34.47;;;20.40;;
2522;SDS011;1272;53.332;9.860;2023-03-03T02:23:34;41.80;;;22.97;;
2522;SDS011;1272;53.332;9.860;2023-03-03T02:26:23;44.40;;;22.87;;
2522;SDS011;1272;53.332;9.860;2023-03-03T02:28:51;45.20;;;21.03;;
2522;SDS011;1272;53.332;9.860;2023-03-03T02:31:18;32.07;;;19.27;;
2522;SDS011;1272;53.332;9.860;2023-03-03T02:33:47;35.53;;;19.40;;
2522;SDS011;1272;53.332;9.860;2023-03-03T02:36:18;31.80;;;17.83;;
2522;SDS011;1272;53.332;9.860;2023-03-03T02:44:00;41.33;;;20.83;;
2522;SDS011;1272;53.332;9.860;2023-03-03T02:46:44;43.87;;;22.50;;
2522;SDS011;1272;53.332;9.860;2023-03-03T02:49:12;36.93;;;21.23;;
2522;SDS011;1272;53.332;9.860;2023-03-03T02:51:40;39.30;;;20.37;;
2522;SDS011;1272;53.332;9.860;2023-03-03T02:54:07;43.70;;;24.47;;
2522;SDS011;1272;53.332;9.860;2023-03-03T02:56:34;38.20;;;21.17;;
2522;SDS011;1272;53.332;9.860;2023-03-03T02:59:00;36.80;;;20.23;;
2522;SDS011;1272;53.332;9.860;2023-03-03T03:01:26;45.20;;;21.60;;
2522;SDS011;1272;53.332;9.860;2023-03-03T03:03:53;39.03;;;19.50;;
2522;SDS011;1272;53.332;9.860;2023-03-03T03:06:19;45.17;;;23.20;;
2522;SDS011;1272;53.332;9.860;2023-03-03T03:08:44;38.60;;;21.50;;
2522;SDS011;1272;53.332;9.860;2023-03-03T03:11:10;42.47;;;22.07;;
2522;SDS011;1272;53.332;9.860;2023-03-03T03:13:36;39.63;;;22.37;;
2522;SDS011;1272;53.332;9.860;2023-03-03T03:16:02;37.97;;;19.97;;
2522;SDS011;1272;53.332;9.860;2023-03-03T03:18:27;36.93;;;21.93;;
2522;SDS011;1272;53.332;9.860;2023-03-03T03:20:53;45.10;;;22.83;;
2522;SDS011;1272;53.332;9.860;2023-03-03T03:23:19;39.23;;;22.03;;
2522;SDS011;1272;53.332;9.860;2023-03-03T03:25:47;47.93;;;23.50;;
2522;SDS011;1272;53.332;9.860;2023-03-03T03:28:14;46.50;;;22.10;;
2522;SDS011;1272;53.332;9.860;2023-03-03T03:30:40;40.40;;;21.40;;
2522;SDS011;1272;53.332;9.860;2023-03-03T03:33:08;44.20;;;22.07;;
2522;SDS011;1272;53.332;9.860;2023-03-03T03:35:34;46.57;;;22.17;;
2522;SDS011;1272;53.332;9.860;2023-03-03T03:38:01;39.47;;;21.73;;
2522;SDS011;1272;53.332;9.860;2023-03-03T03:40:27;45.70;;;22.30;;
2522;SDS011;1272;53.332;9.860;2023-03-03T03:42:53;40.33;;;20.33;;
2522;SDS011;1272;53.332;9.860;2023-03-03T03:45:19;44.83;;;23.57;;
2522;SDS011;1272;53.332;9.860;2023-03-03T03:47:46;61.57;;;23.70;;
2522;SDS011;1272;53.332;9.860;2023-03-03T03:50:12;39.17;;;20.37;;
2522;SDS011;1272;53.332;9.860;2023-03-03T03:52:38;53.57;;;23.87;;
2522;SDS011;1272;53.332;9.860;2023-03-03T03:55:04;37.57;;;22.30;;
2522;SDS011;1272;53.332;9.860;2023-03-03T03:57:30;56.77;;;25.67;;
2522;SDS011;1272;53.332;9.860;2023-03-03T03:59:56;47.50;;;22.00;;
2522;SDS011;1272;53.332;9.860;2023-03-03T04:02:21;51.07;;;24.60;;
2522;SDS011;1272;53.332;9.860;2023-03-03T04:04:47;43.87;;;22.40;;
2522;SDS011;1272;53.332;9.860;2023-03-03T04:07:13;43.40;;;22.73;;
2522;SDS011;1272;53.332;9.860;2023-03-03T04:09:39;45.60;;;22.70;;
2522;SDS011;1272;53.332;9.860;2023-03-03T04:12:04;46.20;;;24.20;;
2522;SDS011;1272;53.332;9.860;2023-03-03T04:14:31;35.10;;;21.07;;
2522;SDS011;1272;53.332;9.860;2023-03-03T04:16:56;39.53;;;21.27;;
2522;SDS011;1272;53.332;9.860;2023-03-03T04:19:22;73.57;;;23.20;;
2522;SDS011;1272;53.332;9.860;2023-03-03T04:21:48;39.20;;;21.37;;
2522;SDS011;1272;53.332;9.860;2023-03-03T04:24:14;39.80;;;23.20;;
2522;SDS011;1272;53.332;9.860;2023-03-03T04:26:40;56.10;;;22.60;;
2522;SDS011;1272;53.332;9.860;2023-03-03T04:29:06;47.73;;;21.13;;
2522;SDS011;1272;53.332;9.860;2023-03-03T04:31:32;45.67;;;23.13;;
2522;SDS011;1272;53.332;9.860;2023-03-03T04:33:57;46.03;;;21.57;;
2522;SDS011;1272;53.332;9.860;2023-03-03T04:36:23;41.87;;;21.70;;
2522;SDS011;1272;53.332;9.860;2023-03-03T04:38:49;39.87;;;20.50;;
2522;SDS011;1272;53.332;9.860;2023-03-03T04:41:15;50.53;;;22.43;;
2522;SDS011;1272;53.332;9.860;2023-03-03T04:43:40;59.53;;;24.27;;
2522;SDS011;1272;53.332;9.860;2023-03-03T04:46:06;41.77;;;19.63;;
2522;SDS011;1272;53.332;9.860;2023-03-03T04:48:32;41.93;;;22.47;;
2522;SDS011;1272;53.332;9.860;2023-03-03T04:50:57;45.20;;;20.90;;
2522;SDS011;1272;53.332;9.860;2023-03-03T04:53:23;39.77;;;20.30;;
2522;SDS011;1272;53.332;9.860;2023-03-03T04:55:50;38.47;;;19.87;;
2522;SDS011;1272;53.332;9.860;2023-03-03T04:58:16;40.20;;;21.20;;
2522;SDS011;1272;53.332;9.860;2023-03-03T05:00:43;35.53;;;19.90;;
2522;SDS011;1272;53.332;9.860;2023-03-03T05:03:10;41.83;;;22.90;;
2522;SDS011;1272;53.332;9.860;2023-03-03T05:05:36;37.63;;;21.40;;
2522;SDS011;1272;53.332;9.860;2023-03-03T05:08:02;44.33;;;20.83;;
2522;SDS011;1272;53.332;9.860;2023-03-03T05:10:28;34.43;;;20.27;;
2522;SDS011;1272;53.332;9.860;2023-03-03T05:12:54;47.97;;;21.93;;
2522;SDS011;1272;53.332;9.860;2023-03-03T05:15:20;38.73;;;21.70;;
2522;SDS011;1272;53.332;9.860;2023-03-03T05:17:45;41.83;;;23.03;;
2522;SDS011;1272;53.332;9.860;2023-03-03T05:20:11;31.47;;;17.70;;
2522;SDS011;1272;53.332;9.860;2023-03-03T05:22:38;39.77;;;20.97;;
2522;SDS011;1272;53.332;9.860;2023-03-03T05:25:03;56.23;;;24.20;;
2522;SDS011;1272;53.332;9.860;2023-03-03T05:27:30;36.97;;;19.27;;
2522;SDS011;1272;53.332;9.860;2023-03-03T05:29:55;39.47;;;20.67;;
2522;SDS011;1272;53.332;9.860;2023-03-03T05:32:21;36.30;;;19.20;;
2522;SDS011;1272;53.332;9.860;2023-03-03T05:34:47;38.57;;;20.10;;
2522;SDS011;1272;53.332;9.860;2023-03-03T05:37:13;39.93;;;20.00;;
2522;SDS011;1272;53.332;9.860;2023-03-03T05:39:39;34.73;;;19.47;;
2522;SDS011;1272;53.332;9.860;2023-03-03T05:42:05;41.07;;;20.03;;
2522;SDS011;1272;53.332;9.860;2023-03-03T05:44:31;38.80;;;19.63;;
2522;SDS011;1272;53.332;9.860;2023-03-03T05:46:56;35.83;;;18.33;;
2522;SDS011;1272;53.332;9.860;2023-03-03T05:49:23;37.10;;;20.60;;
2522;SDS011;1272;53.332;9.860;2023-03-03T05:51:50;59.03;;;22.90;;
2522;SDS011;1272;53.332;9.860;2023-03-03T05:54:16;39.70;;;20.00;;
2522;SDS011;1272;53.332;9.860;2023-03-03T05:56:42;34.70;;;19.30;;
2522;SDS011;1272;53.332;9.860;2023-03-03T05:59:07;38.00;;;20.20;;
2522;SDS011;1272;53.332;9.860;2023-03-03T06:01:33;59.30;;;20.93;;
2522;SDS011;1272;53.332;9.860;2023-03-03T06:03:59;38.67;;;20.77;;
2522;SDS011;1272;53.332;9.860;2023-03-03T06:06:24;38.30;;;20.90;;
2522;SDS011;1272;53.332;9.860;2023-03-03T06:08:50;34.43;;;19.90;;
2522;SDS011;1272;53.332;9.860;2023-03-03T06:11:17;40.33;;;20.10;;
2522;SDS011;1272;53.332;9.860;2023-03-03T06:13:43;53.10;;;21.27;;
2522;SDS011;1272;53.332;9.860;2023-03-03T06:16:09;34.27;;;19.50;;
2522;SDS011;1272;53.332;9.860;2023-03-03T06:18:37;41.93;;;19.73;;
2522;SDS011;1272;53.332;9.860;2023-03-03T06:21:03;35.23;;;17.47;;
2522;SDS011;1272;53.332;9.860;2023-03-03T06:23:29;38.33;;;19.53;;
2522;SDS011;1272;53.332;9.860;2023-03-03T06:25:54;31.27;;;17.00;;
2522;SDS011;1272;53.332;9.860;2023-03-03T06:28:21;31.30;;;16.93;;
2522;SDS011;1272;53.332;9.860;2023-03-03T06:30:51;32.03;;;18.87;;
2522;SDS011;1272;53.332;9.860;2023-03-03T06:33:18;37.53;;;19.20;;
2522;SDS011;1272;53.332;9.860;2023-03-03T06:35:47;27.73;;;15.30;;
2522;SDS011;1272;53.332;9.860;2023-03-03T06:38:14;37.03;;;20.60;;
2522;SDS011;1272;53.332;9.860;2023-03-03T06:40:40;34.13;;;17.93;;
2522;SDS011;1272;53.332;9.860;2023-03-03T06:43:06;31.37;;;17.67;;
2522;SDS011;1272;53.332;9.860;2023-03-03T06:45:31;26.73;;;16.43;;
2522;SDS011;1272;53.332;9.860;2023-03-03T06:47:57;27.50;;;16.10;;
2522;SDS011;1272;53.332;9.860;2023-03-03T06:50:23;34.33;;;19.17;;
2522;SDS011;1272;53.332;9.860;2023-03-03T06:52:48;23.80;;;15.40;;
2522;SDS011;1272;53.332;9.860;2023-03-03T06:55:17;24.57;;;15.07;;
2522;SDS011;1272;53.332;9.860;2023-03-03T06:57:47;32.63;;;15.93;;
2522;SDS011;1272;53.332;9.860;2023-03-03T07:00:23;24.73;;;14.30;;
2522;SDS011;1272;53.332;9.860;2023-03-03T07:03:00;25.20;;;15.33;;
2522;SDS011;1272;53.332;9.860;2023-03-03T07:05:36;28.37;;;16.17;;
2522;SDS011;1272;53.332;9.860;2023-03-03T07:08:02;27.63;;;15.27;;
2522;SDS011;1272;53.332;9.860;2023-03-03T07:10:35;23.97;;;14.43;;
2522;SDS011;1272;53.332;9.860;2023-03-03T07:13:03;25.53;;;15.97;;
2522;SDS011;1272;53.332;9.860;2023-03-03T07:15:58;35.43;;;17.47;;
2522;SDS011;1272;53.332;9.860;2023-03-03T07:21:01;26.20;;;15.23;;
2522;SDS011;1272;53.332;9.860;2023-03-03T07:23:48;29.43;;;15.93;;
2522;SDS011;1272;53.332;9.860;2023-03-03T07:26:17;22.43;;;14.03;;
2522;SDS011;1272;53.332;9.860;2023-03-03T07:28:53;24.97;;;15.53;;
2522;SDS011;1272;53.332;9.860;2023-03-03T07:31:24;26.10;;;16.47;;
2522;SDS011;1272;53.332;9.860;2023-03-03T07:34:04;31.27;;;17.37;;
2522;SDS011;1272;53.332;9.860;2023-03-03T07:36:43;68.27;;;19.13;;
2522;SDS011;1272;53.332;9.860;2023-03-03T07:39:52;31.60;;;17.40;;
2522;SDS011;1272;53.332;9.860;2023-03-03T07:45:20;37.30;;;17.20;;
2522;SDS011;1272;53.332;9.860;2023-03-03T07:47:52;30.13;;;17.57;;
2522;SDS011;1272;53.332;9.860;2023-03-03T07:50:46;46.60;;;20.80;;
2522;SDS011;1272;53.332;9.860;2023-03-03T07:53:25;38.77;;;18.60;;
2522;SDS011;1272;53.332;9.860;2023-03-03T07:55:52;39.80;;;18.27;;
2522;SDS011;1272;53.332;9.860;2023-03-03T07:58:22;41.77;;;18.70;;
2522;SDS011;1272;53.332;9.860;2023-03-03T08:03:43;37.97;;;17.10;;
2522;SDS011;1272;53.332;9.860;2023-03-03T08:06:56;30.40;;;17.83;;
2522;SDS011;1272;53.332;9.860;2023-03-03T08:11:34;31.33;;;17.13;;
2522;SDS011;1272;53.332;9.860;2023-03-03T08:14:28;33.00;;;16.50;;
2522;SDS011;1272;53.332;9.860;2023-03-03T08:16:58;29.70;;;15.77;;
2522;SDS011;1272;53.332;9.860;2023-03-03T08:19:24;36.13;;;16.90;;
2522;SDS011;1272;53.332;9.860;2023-03-03T08:21:51;29.70;;;16.47;;
2522;SDS011;1272;53.332;9.860;2023-03-03T08:24:36;33.00;;;16.90;;
2522;SDS011;1272;53.332;9.860;2023-03-03T08:27:01;34.40;;;16.27;;
2522;SDS011;1272;53.332;9.860;2023-03-03T08:29:27;32.67;;;17.47;;
2522;SDS011;1272;53.332;9.860;2023-03-03T08:31:53;33.87;;;17.30;;
2522;SDS011;1272;53.332;9.860;2023-03-03T08:34:18;30.90;;;17.93;;
2522;SDS011;1272;53.332;9.860;2023-03-03T08:36:44;33.30;;;17.13;;
2522;SDS011;1272;53.332;9.860;2023-03-03T08:39:11;30.80;;;15.07;;
2522;SDS011;1272;53.332;9.860;2023-03-03T08:41:37;32.03;;;16.57;;
2522;SDS011;1272;53.332;9.860;2023-03-03T08:44:05;32.33;;;18.20;;
2522;SDS011;1272;53.332;9.860;2023-03-03T08:46:30;28.60;;;17.77;;
2522;SDS011;1272;53.332;9.860;2023-03-03T08:48:56;29.00;;;16.83;;
2522;SDS011;1272;53.332;9.860;2023-03-03T08:51:22;27.37;;;14.20;;
2522;SDS011;1272;53.332;9.860;2023-03-03T08:53:49;23.20;;;13.60;;
2522;SDS011;1272;53.332;9.860;2023-03-03T08:56:14;21.90;;;13.10;;
2522;SDS011;1272;53.332;9.860;2023-03-03T08:58:40;24.70;;;14.97;;
2522;SDS011;1272;53.332;9.860;2023-03-03T09:01:12;27.30;;;13.90;;
2522;SDS011;1272;53.332;9.860;2023-03-03T09:03:40;28.20;;;16.37;;
2522;SDS011;1272;53.332;9.860;2023-03-03T09:06:05;25.17;;;14.50;;
2522;SDS011;1272;53.332;9.860;2023-03-03T09:08:31;23.33;;;13.97;;
2522;SDS011;1272;53.332;9.860;2023-03-03T09:10:57;27.00;;;15.33;;
2522;SDS011;1272;53.332;9.860;2023-03-03T09:13:23;26.27;;;15.20;;
2522;SDS011;1272;53.332;9.860;2023-03-03T09:15:48;28.67;;;14.67;;
2522;SDS011;1272;53.332;9.860;2023-03-03T09:18:18;21.00;;;14.30;;
2522;SDS011;1272;53.332;9.860;2023-03-03T09:20:47;24.47;;;12.93;;
2522;SDS011;1272;53.332;9.860;2023-03-03T09:23:34;22.23;;;13.77;;
2522;SDS011;1272;53.332;9.860;2023-03-03T09:29:37;20.63;;;13.37;;
2522;SDS011;1272;53.332;9.860;2023-03-03T09:36:48;20.57;;;12.23;;
2522;SDS011;1272;53.332;9.860;2023-03-03T09:39:21;17.23;;;12.60;;
2522;SDS011;1272;53.332;9.860;2023-03-03T10:00:37;19.90;;;10.50;;
2522;SDS011;1272;53.332;9.860;2023-03-03T10:05:42;16.50;;;10.53;;
2522;SDS011;1272;53.332;9.860;2023-03-03T10:08:31;16.93;;;10.83;;
2522;SDS011;1272;53.332;9.860;2023-03-03T10:19:31;16.30;;;9.73;;
2522;SDS011;1272;53.332;9.860;2023-03-03T10:22:29;12.40;;;8.50;;
2522;SDS011;1272;53.332;9.860;2023-03-03T10:25:19;13.47;;;9.60;;
2522;SDS011;1272;53.332;9.860;2023-03-03T10:33:33;13.80;;;9.83;;
2522;SDS011;1272;53.332;9.860;2023-03-03T10:39:10;16.70;;;9.50;;
2522;SDS011;1272;53.332;9.860;2023-03-03T10:41:54;14.73;;;9.47;;
2522;SDS011;1272;53.332;9.860;2023-03-03T10:52:54;8.47;;;7.30;;
2522;SDS011;1272;53.332;9.860;2023-03-03T10:55:43;10.37;;;7.67;;
2522;SDS011;1272;53.332;9.860;2023-03-03T11:01:12;16.03;;;7.83;;
2522;SDS011;1272;53.332;9.860;2023-03-03T11:06:45;13.93;;;8.13;;
2522;SDS011;1272;53.332;9.860;2023-03-03T11:20:49;14.10;;;8.10;;
2522;SDS011;1272;53.332;9.860;2023-03-03T11:26:18;18.30;;;9.97;;
2522;SDS011;1272;53.332;9.860;2023-03-03T11:34:16;18.30;;;10.13;;
2522;SDS011;1272;53.332;9.860;2023-03-03T11:37:15;21.10;;;11.17;;
2522;SDS011;1272;53.332;9.860;2023-03-03T11:40:08;13.23;;;8.83;;
2522;SDS011;1272;53.332;9.860;2023-03-03T11:45:33;16.50;;;10.10;;
2522;SDS011;1272;53.332;9.860;2023-03-03T11:48:31;17.63;;;8.97;;
2522;SDS011;1272;53.332;9.860;2023-03-03T11:51:10;13.20;;;9.27;;
2522;SDS011;1272;53.332;9.860;2023-03-03T11:56:22;16.17;;;9.83;;
2522;SDS011;1272;53.332;9.860;2023-03-03T12:01:52;14.67;;;8.93;;
2522;SDS011;1272;53.332;9.860;2023-03-03T12:10:13;16.90;;;9.70;;
2522;SDS011;1272;53.332;9.860;2023-03-03T12:21:39;10.90;;;7.00;;
2522;SDS011;1272;53.332;9.860;2023-03-03T12:27:21;7.83;;;6.00;;
2522;SDS011;1272;53.332;9.860;2023-03-03T12:37:55;8.00;;;5.23;;
2522;SDS011;1272;53.332;9.860;2023-03-03T12:40:24;8.50;;;5.20;;
2522;SDS011;1272;53.332;9.860;2023-03-03T12:43:11;8.00;;;5.90;;
2522;SDS011;1272;53.332;9.860;2023-03-03T12:48:18;6.47;;;4.37;;
2522;SDS011;1272;53.332;9.860;2023-03-03T12:53:35;5.67;;;4.80;;
2522;SDS011;1272;53.332;9.860;2023-03-03T12:56:08;6.10;;;4.67;;
2522;SDS011;1272;53.332;9.860;2023-03-03T13:01:39;8.43;;;5.93;;
2522;SDS011;1272;53.332;9.860;2023-03-03T13:04:35;6.10;;;4.37;;
2522;SDS011;1272;53.332;9.860;2023-03-03T13:12:08;6.03;;;4.23;;
2522;SDS011;1272;53.332;9.860;2023-03-03T13:17:26;6.37;;;4.53;;
2522;SDS011;1272;53.332;9.860;2023-03-03T13:20:04;7.73;;;4.53;;
2522;SDS011;1272;53.332;9.860;2023-03-03T13:27:53;6.43;;;4.87;;
2522;SDS011;1272;53.332;9.860;2023-03-03T13:30:32;8.70;;;4.63;;
2522;SDS011;1272;53.332;9.860;2023-03-03T13:33:09;8.53;;;4.33;;
2522;SDS011;1272;53.332;9.860;2023-03-03T13:38:34;6.93;;;4.70;;
2522;SDS011;1272;53.332;9.860;2023-03-03T13:44:01;5.33;;;4.73;;
2522;SDS011;1272;53.332;9.860;2023-03-03T13:46:39;6.93;;;4.93;;
2522;SDS011;1272;53.332;9.860;2023-03-03T13:52:14;6.13;;;4.63;;
2522;SDS011;1272;53.332;9.860;2023-03-03T13:54:50;5.30;;;4.70;;
2522;SDS011;1272;53.332;9.860;2023-03-03T14:11:10;2.77;;;2.57;;
2522;SDS011;1272;53.332;9.860;2023-03-03T14:14:02;3.70;;;2.93;;
2522;SDS011;1272;53.332;9.860;2023-03-03T14:19:38;3.83;;;3.50;;
2522;SDS011;1272;53.332;9.860;2023-03-03T14:27:36;34.80;;;16.63;;
2522;SDS011;1272;53.332;9.860;2023-03-03T14:35:48;7.03;;;3.63;;
2522;SDS011;1272;53.332;9.860;2023-03-03T14:43:37;8.30;;;4.07;;
2522;SDS011;1272;53.332;9.860;2023-03-03T14:48:58;5.43;;;4.07;;
2522;SDS011;1272;53.332;9.860;2023-03-03T14:54:05;5.03;;;3.57;;
2522;SDS011;1272;53.332;9.860;2023-03-03T14:56:39;4.13;;;3.83;;
2522;SDS011;1272;53.332;9.860;2023-03-03T14:59:30;4.43;;;4.03;;
2522;SDS011;1272;53.332;9.860;2023-03-03T15:02:42;3.30;;;3.10;;
2522;SDS011;1272;53.332;9.860;2023-03-03T15:04:42;4.33;;;3.07;;
2522;SDS011;1272;53.332;9.860;2023-03-03T15:09:52;8.57;;;5.23;;
2522;SDS011;1272;53.332;9.860;2023-03-03T15:14:49;4.97;;;2.80;;
2522;SDS011;1272;53.332;9.860;2023-03-03T15:26:09;5.10;;;4.80;;
2522;SDS011;1272;53.332;9.860;2023-03-03T15:31:52;5.40;;;4.33;;
2522;SDS011;1272;53.332;9.860;2023-03-03T15:43:04;4.57;;;4.17;;
2522;SDS011;1272;53.332;9.860;2023-03-03T15:48:29;3.80;;;2.80;;
2522;SDS011;1272;53.332;9.860;2023-03-03T15:54:13;5.20;;;2.70;;
2522;SDS011;1272;53.332;9.860;2023-03-03T15:56:54;3.47;;;3.20;;
2522;SDS011;1272;53.332;9.860;2023-03-03T16:02:25;4.23;;;3.30;;
2522;SDS011;1272;53.332;9.860;2023-03-03T16:05:19;7.07;;;2.57;;
2522;SDS011;1272;53.332;9.860;2023-03-03T16:19:05;6.43;;;3.40;;
2522;SDS011;1272;53.332;9.860;2023-03-03T16:24:16;14.33;;;8.17;;
2522;SDS011;1272;53.332;9.860;2023-03-03T16:26:51;3.03;;;2.83;;
2522;SDS011;1272;53.332;9.860;2023-03-03T16:32:00;8.63;;;4.60;;
2522;SDS011;1272;53.332;9.860;2023-03-03T16:34:57;5.50;;;5.00;;
2522;SDS011;1272;53.332;9.860;2023-03-03T16:42:51;8.07;;;6.47;;
2522;SDS011;1272;53.332;9.860;2023-03-03T16:45:34;4.80;;;4.40;;
2522;SDS011;1272;53.332;9.860;2023-03-03T16:50:52;5.00;;;4.60;;
2522;SDS011;1272;53.332;9.860;2023-03-03T16:56:22;4.67;;;4.17;;
2522;SDS011;1272;53.332;9.860;2023-03-03T17:01:34;10.70;;;3.50;;
2522;SDS011;1272;53.332;9.860;2023-03-03T17:04:27;4.37;;;3.40;;
2522;SDS011;1272;53.332;9.860;2023-03-03T17:07:21;4.93;;;4.43;;
2522;SDS011;1272;53.332;9.860;2023-03-03T17:16:01;8.67;;;5.57;;
2522;SDS011;1272;53.332;9.860;2023-03-03T17:32:31;4.47;;;3.70;;
2522;SDS011;1272;53.332;9.860;2023-03-03T17:41:04;14.20;;;4.20;;
2522;SDS011;1272;53.332;9.860;2023-03-03T17:43:56;7.10;;;3.40;;
2522;SDS011;1272;53.332;9.860;2023-03-03T17:52:19;11.53;;;3.43;;
2522;SDS011;1272;53.332;9.860;2023-03-03T18:03:40;8.87;;;3.27;;
2522;SDS011;1272;53.332;9.860;2023-03-03T18:22:42;14.87;;;4.00;;
2522;SDS011;1272;53.332;9.860;2023-03-03T18:25:11;10.57;;;3.87;;
2522;SDS011;1272;53.332;9.860;2023-03-03T18:27:38;10.63;;;3.33;;
2522;SDS011;1272;53.332;9.860;2023-03-03T18:35:37;19.00;;;4.23;;
2522;SDS011;1272;53.332;9.860;2023-03-03T18:40:49;21.67;;;5.50;;
2522;SDS011;1272;53.332;9.860;2023-03-03T18:46:11;12.90;;;3.73;;
2522;SDS011;1272;53.332;9.860;2023-03-03T18:49:05;8.97;;;3.60;;
2522;SDS011;1272;53.332;9.860;2023-03-03T18:59:10;19.53;;;6.27;;
2522;SDS011;1272;53.332;9.860;2023-03-03T19:04:43;19.03;;;5.00;;
2522;SDS011;1272;53.332;9.860;2023-03-03T19:07:56;17.23;;;5.03;;
2522;SDS011;1272;53.332;9.860;2023-03-03T19:12:52;15.73;;;5.13;;
2522;SDS011;1272;53.332;9.860;2023-03-03T19:18:01;12.57;;;3.83;;
2522;SDS011;1272;53.332;9.860;2023-03-03T19:20:41;18.33;;;4.60;;
2522;SDS011;1272;53.332;9.860;2023-03-03T19:28:58;11.10;;;4.07;;
2522;SDS011;1272;53.332;9.860;2023-03-03T19:31:48;13.30;;;3.70;;
2522;SDS011;1272;53.332;9.860;2023-03-03T19:43:14;15.23;;;4.70;;
2522;SDS011;1272;53.332;9.860;2023-03-03T19:48:39;19.00;;;4.33;;
2522;SDS011;1272;53.332;9.860;2023-03-03T19:51:26;15.33;;;4.83;;
2522;SDS011;1272;53.332;9.860;2023-03-03T19:57:18;13.73;;;4.30;;
2522;SDS011;1272;53.332;9.860;2023-03-03T20:02:32;16.13;;;4.93;;
2522;SDS011;1272;53.332;9.860;2023-03-03T20:08:20;22.17;;;5.17;;
2522;SDS011;1272;53.332;9.860;2023-03-03T20:10:54;10.93;;;4.20;;
2522;SDS011;1272;53.332;9.860;2023-03-03T20:16:38;19.47;;;5.00;;
2522;SDS011;1272;53.332;9.860;2023-03-03T20:19:09;10.47;;;3.90;;
2522;SDS011;1272;53.332;9.860;2023-03-03T20:21:43;17.73;;;4.70;;
2522;SDS011;1272;53.332;9.860;2023-03-03T20:41:02;14.70;;;5.17;;
2522;SDS011;1272;53.332;9.860;2023-03-03T20:43:47;16.23;;;4.80;;
2522;SDS011;1272;53.332;9.860;2023-03-03T20:46:31;10.60;;;3.70;;
2522;SDS011;1272;53.332;9.860;2023-03-03T20:51:46;19.17;;;4.47;;
2522;SDS011;1272;53.332;9.860;2023-03-03T21:03:06;18.20;;;5.20;;
2522;SDS011;1272;53.332;9.860;2023-03-03T21:05:57;24.03;;;5.50;;
2522;SDS011;1272;53.332;9.860;2023-03-03T21:11:18;10.63;;;4.43;;
2522;SDS011;1272;53.332;9.860;2023-03-03T21:14:21;16.07;;;3.87;;
2522;SDS011;1272;53.332;9.860;2023-03-03T21:16:49;13.17;;;3.77;;
2522;SDS011;1272;53.332;9.860;2023-03-03T21:21:50;17.57;;;4.30;;
2522;SDS011;1272;53.332;9.860;2023-03-03T21:24:16;17.23;;;4.63;;
2522;SDS011;1272;53.332;9.860;2023-03-03T21:26:52;22.87;;;4.23;;
2522;SDS011;1272;53.332;9.860;2023-03-03T21:29:29;23.80;;;5.97;;
2522;SDS011;1272;53.332;9.860;2023-03-03T21:34:27;20.53;;;4.50;;
2522;SDS011;1272;53.332;9.860;2023-03-03T21:36:58;20.77;;;3.80;;
2522;SDS011;1272;53.332;9.860;2023-03-03T21:39:26;17.03;;;5.23;;
2522;SDS011;1272;53.332;9.860;2023-03-03T21:44:43;22.33;;;6.37;;
2522;SDS011;1272;53.332;9.860;2023-03-03T21:47:17;18.47;;;4.17;;
2522;SDS011;1272;53.332;9.860;2023-03-03T21:49:48;21.67;;;4.33;;
2522;SDS011;1272;53.332;9.860;2023-03-03T21:52:15;16.60;;;3.60;;
2522;SDS011;1272;53.332;9.860;2023-03-03T21:54:42;14.13;;;3.47;;
2522;SDS011;1272;53.332;9.860;2023-03-03T21:57:08;11.07;;;3.57;;
2522;SDS011;1272;53.332;9.860;2023-03-03T21:59:35;13.93;;;3.03;;
2522;SDS011;1272;53.332;9.860;2023-03-03T22:02:01;16.17;;;3.97;;
2522;SDS011;1272;53.332;9.860;2023-03-03T22:04:27;21.80;;;3.53;;
2522;SDS011;1272;53.332;9.860;2023-03-03T22:06:53;11.10;;;3.67;;
2522;SDS011;1272;53.332;9.860;2023-03-03T22:09:19;24.67;;;5.43;;
2522;SDS011;1272;53.332;9.860;2023-03-03T22:11:45;22.53;;;3.77;;
2522;SDS011;1272;53.332;9.860;2023-03-03T22:14:11;18.97;;;4.60;;
2522;SDS011;1272;53.332;9.860;2023-03-03T22:16:37;20.10;;;3.90;;
2522;SDS011;1272;53.332;9.860;2023-03-03T22:19:03;19.33;;;3.93;;
2522;SDS011;1272;53.332;9.860;2023-03-03T22:21:30;14.67;;;3.63;;
2522;SDS011;1272;53.332;9.860;2023-03-03T22:23:56;13.50;;;4.03;;
2522;SDS011;1272;53.332;9.860;2023-03-03T22:26:22;17.73;;;4.10;;
2522;SDS011;1272;53.332;9.860;2023-03-03T22:28:48;14.83;;;3.83;;